KLIT/LIT METAR and TAF weather

Enter ICAO airport designator
Station Type Date Time Source
KLIT METAR 2021/05/12 01:53 UTC NOAA

KLIT 120153Z 03005KT 10SM BKN010 OVC013 13/12 A3014 RMK AO2 RAE40 SLP207 P0000 T01280117


Station Type Date Time Source
KLIT Decoded METAR 2021/05/12 01:53 UTC NOAA

LITTLE ROCK ADAMS FIELD, AR, United States (KLIT) 34-44N 92-14W 79M
May 11, 2021 - 09:53 PM EDT / 2021.05.12 0153 UTC
Wind: from the NNE (030 degrees) at 6 MPH (5 KT):0
Visibility: 10 mile(s):0
Sky conditions: overcast
Precipitation last hour: A trace
Temperature: 55.0 F (12.8 C)
Dew Point: 53.1 F (11.7 C)
Relative Humidity: 93%
Pressure (altimeter): 30.14 in. Hg (1020 hPa)
ob: KLIT 120153Z 03005KT 10SM BKN010 OVC013 13/12 A3014 RMK AO2 RAE40 SLP207 P0000 T01280117
cycle: 2

Station Type Date Time Source
KLIT TAF 2021/05/12 00:18 UTC NOAA

TAF
AMD KLIT 120015Z 1200/1224 05008G16KT 6SM -SHRA SCT015 BKN040 OVC100
TEMPO 1200/1202 4SM SHRA BR BKN012
FM120200 03011KT P6SM VCSH OVC015
FM120800 05010G18KT P6SM BKN025 OVC050
FM121200 05010G18KT P6SM SCT025 BKN040 OVC080

Example: see airport list